sensor_id;sensor_type;location;lat;lon;timestamp;temperature;humidity
19892;DHT22;10108;50.142;8.724;2023-08-30T00:00:19;16.50;99.90
19892;DHT22;10108;50.142;8.724;2023-08-30T00:02:47;16.50;99.90
19892;DHT22;10108;50.142;8.724;2023-08-30T00:05:14;16.50;99.90
19892;DHT22;10108;50.142;8.724;2023-08-30T00:07:40;16.50;99.90
19892;DHT22;10108;50.142;8.724;2023-08-30T00:10:09;16.50;99.90
19892;DHT22;10108;50.142;8.724;2023-08-30T00:12:36;16.40;99.90
19892;DHT22;10108;50.142;8.724;2023-08-30T00:15:02;16.40;99.90
19892;DHT22;10108;50.142;8.724;2023-08-30T00:17:28;16.40;99.90
19892;DHT22;10108;50.142;8.724;2023-08-30T00:19:54;16.30;99.90
19892;DHT22;10108;50.142;8.724;2023-08-30T00:22:21;16.30;99.90
19892;DHT22;10108;50.142;8.724;2023-08-30T00:24:47;16.30;99.90
19892;DHT22;10108;50.142;8.724;2023-08-30T00:27:14;16.20;99.90
19892;DHT22;10108;50.142;8.724;2023-08-30T00:29:40;16.20;99.90
19892;DHT22;10108;50.142;8.724;2023-08-30T00:32:06;16.20;99.90
19892;DHT22;10108;50.142;8.724;2023-08-30T00:34:33;16.20;99.90
19892;DHT22;10108;50.142;8.724;2023-08-30T00:36:59;16.20;99.90
19892;DHT22;10108;50.142;8.724;2023-08-30T00:39:25;16.20;99.90
19892;DHT22;10108;50.142;8.724;2023-08-30T00:41:51;16.30;99.90
19892;DHT22;10108;50.142;8.724;2023-08-30T00:44:17;16.30;99.90
19892;DHT22;10108;50.142;8.724;2023-08-30T00:46:43;16.30;99.90
19892;DHT22;10108;50.142;8.724;2023-08-30T00:49:10;16.30;99.90
19892;DHT22;10108;50.142;8.724;2023-08-30T00:51:36;16.30;99.90
19892;DHT22;10108;50.142;8.724;2023-08-30T00:54:03;16.30;99.90
19892;DHT22;10108;50.142;8.724;2023-08-30T00:56:29;16.30;99.90
19892;DHT22;10108;50.142;8.724;2023-08-30T00:58:56;16.30;99.90
19892;DHT22;10108;50.142;8.724;2023-08-30T01:01:23;16.30;99.90
19892;DHT22;10108;50.142;8.724;2023-08-30T01:03:49;16.30;99.90
19892;DHT22;10108;50.142;8.724;2023-08-30T01:06:15;16.40;99.90
19892;DHT22;10108;50.142;8.724;2023-08-30T01:08:44;16.40;99.90
19892;DHT22;10108;50.142;8.724;2023-08-30T01:11:36;16.40;99.90
19892;DHT22;10108;50.142;8.724;2023-08-30T01:14:13;16.40;99.90
19892;DHT22;10108;50.142;8.724;2023-08-30T01:16:41;16.40;99.90
19892;DHT22;10108;50.142;8.724;2023-08-30T01:19:30;16.40;99.90
19892;DHT22;10108;50.142;8.724;2023-08-30T01:22:12;16.40;99.90
19892;DHT22;10108;50.142;8.724;2023-08-30T01:25:08;16.40;99.90
19892;DHT22;10108;50.142;8.724;2023-08-30T01:27:35;16.40;99.90
19892;DHT22;10108;50.142;8.724;2023-08-30T01:30:05;16.40;99.90
19892;DHT22;10108;50.142;8.724;2023-08-30T01:32:34;16.40;99.90
19892;DHT22;10108;50.142;8.724;2023-08-30T01:35:02;16.30;99.90
19892;DHT22;10108;50.142;8.724;2023-08-30T01:37:29;16.30;99.90
19892;DHT22;10108;50.142;8.724;2023-08-30T01:39:57;16.30;99.90
19892;DHT22;10108;50.142;8.724;2023-08-30T01:42:25;16.30;99.90
19892;DHT22;10108;50.142;8.724;2023-08-30T01:44:53;16.30;99.90
19892;DHT22;10108;50.142;8.724;2023-08-30T01:47:27;16.30;99.90
19892;DHT22;10108;50.142;8.724;2023-08-30T01:49:55;16.30;99.90
19892;DHT22;10108;50.142;8.724;2023-08-30T01:52:24;16.30;99.90
19892;DHT22;10108;50.142;8.724;2023-08-30T01:54:53;16.30;99.90
19892;DHT22;10108;50.142;8.724;2023-08-30T01:57:19;16.30;99.90
19892;DHT22;10108;50.142;8.724;2023-08-30T01:59:46;16.20;99.90
19892;DHT22;10108;50.142;8.724;2023-08-30T02:02:12;16.20;99.90
19892;DHT22;10108;50.142;8.724;2023-08-30T02:04:38;16.20;99.90
19892;DHT22;10108;50.142;8.724;2023-08-30T02:07:20;16.20;99.90
19892;DHT22;10108;50.142;8.724;2023-08-30T02:10:02;16.20;99.90
19892;DHT22;10108;50.142;8.724;2023-08-30T02:12:40;16.20;99.90
19892;DHT22;10108;50.142;8.724;2023-08-30T02:15:07;16.20;99.90
19892;DHT22;10108;50.142;8.724;2023-08-30T02:17:35;16.10;99.90
19892;DHT22;10108;50.142;8.724;2023-08-30T02:20:03;16.10;99.90
19892;DHT22;10108;50.142;8.724;2023-08-30T02:22:31;16.10;99.90
19892;DHT22;10108;50.142;8.724;2023-08-30T02:24:57;16.10;99.90
19892;DHT22;10108;50.142;8.724;2023-08-30T02:27:23;16.10;99.90
19892;DHT22;10108;50.142;8.724;2023-08-30T02:29:50;16.10;99.90
19892;DHT22;10108;50.142;8.724;2023-08-30T02:32:16;16.10;99.90
19892;DHT22;10108;50.142;8.724;2023-08-30T02:34:52;16.20;99.90
19892;DHT22;10108;50.142;8.724;2023-08-30T02:37:20;16.10;99.90
19892;DHT22;10108;50.142;8.724;2023-08-30T02:39:46;16.10;99.90
19892;DHT22;10108;50.142;8.724;2023-08-30T02:42:13;16.10;99.90
19892;DHT22;10108;50.142;8.724;2023-08-30T02:44:39;16.10;99.90
19892;DHT22;10108;50.142;8.724;2023-08-30T02:47:05;16.20;99.90
19892;DHT22;10108;50.142;8.724;2023-08-30T02:49:32;16.20;99.90
19892;DHT22;10108;50.142;8.724;2023-08-30T02:51:59;16.20;99.90
19892;DHT22;10108;50.142;8.724;2023-08-30T02:54:25;16.20;99.90
19892;DHT22;10108;50.142;8.724;2023-08-30T02:56:51;16.20;99.90
19892;DHT22;10108;50.142;8.724;2023-08-30T02:59:17;16.20;99.90
19892;DHT22;10108;50.142;8.724;2023-08-30T03:01:44;16.30;99.90
19892;DHT22;10108;50.142;8.724;2023-08-30T03:04:12;16.30;99.90
19892;DHT22;10108;50.142;8.724;2023-08-30T03:06:38;16.30;99.90
19892;DHT22;10108;50.142;8.724;2023-08-30T03:09:04;16.40;99.90
19892;DHT22;10108;50.142;8.724;2023-08-30T03:11:34;16.40;99.90
19892;DHT22;10108;50.142;8.724;2023-08-30T03:14:01;16.40;99.90
19892;DHT22;10108;50.142;8.724;2023-08-30T03:16:27;16.30;99.90
19892;DHT22;10108;50.142;8.724;2023-08-30T03:18:54;16.30;99.90
19892;DHT22;10108;50.142;8.724;2023-08-30T03:21:21;16.30;99.90
19892;DHT22;10108;50.142;8.724;2023-08-30T03:23:47;16.30;99.90
19892;DHT22;10108;50.142;8.724;2023-08-30T03:26:15;16.30;99.90
19892;DHT22;10108;50.142;8.724;2023-08-30T03:28:43;16.30;99.90
19892;DHT22;10108;50.142;8.724;2023-08-30T03:31:19;16.30;99.90
19892;DHT22;10108;50.142;8.724;2023-08-30T03:33:47;16.30;99.90
19892;DHT22;10108;50.142;8.724;2023-08-30T03:36:16;16.30;99.90
19892;DHT22;10108;50.142;8.724;2023-08-30T03:38:43;16.30;99.90
19892;DHT22;10108;50.142;8.724;2023-08-30T03:41:13;16.30;99.90
19892;DHT22;10108;50.142;8.724;2023-08-30T03:43:39;16.30;99.90
19892;DHT22;10108;50.142;8.724;2023-08-30T03:46:06;16.30;99.90
19892;DHT22;10108;50.142;8.724;2023-08-30T03:48:32;16.30;99.90
19892;DHT22;10108;50.142;8.724;2023-08-30T03:50:59;16.30;99.90
19892;DHT22;10108;50.142;8.724;2023-08-30T03:53:26;16.30;99.90
19892;DHT22;10108;50.142;8.724;2023-08-30T03:55:52;16.30;99.90
19892;DHT22;10108;50.142;8.724;2023-08-30T03:58:19;16.20;99.90
19892;DHT22;10108;50.142;8.724;2023-08-30T04:00:45;16.20;99.90
19892;DHT22;10108;50.142;8.724;2023-08-30T04:03:14;16.20;99.90
19892;DHT22;10108;50.142;8.724;2023-08-30T04:05:40;16.20;99.90
19892;DHT22;10108;50.142;8.724;2023-08-30T04:08:07;16.30;99.90
19892;DHT22;10108;50.142;8.724;2023-08-30T04:10:37;16.30;99.90
19892;DHT22;10108;50.142;8.724;2023-08-30T04:13:04;16.30;99.90
19892;DHT22;10108;50.142;8.724;2023-08-30T04:15:35;16.30;99.90
19892;DHT22;10108;50.142;8.724;2023-08-30T04:18:02;16.30;99.90
19892;DHT22;10108;50.142;8.724;2023-08-30T04:20:29;16.30;99.90
19892;DHT22;10108;50.142;8.724;2023-08-30T04:22:55;16.30;99.90
19892;DHT22;10108;50.142;8.724;2023-08-30T04:25:23;16.30;99.90
19892;DHT22;10108;50.142;8.724;2023-08-30T04:27:49;16.30;99.90
19892;DHT22;10108;50.142;8.724;2023-08-30T04:30:16;16.20;99.90
19892;DHT22;10108;50.142;8.724;2023-08-30T04:32:42;16.30;99.90
19892;DHT22;10108;50.142;8.724;2023-08-30T04:35:08;16.20;99.90
19892;DHT22;10108;50.142;8.724;2023-08-30T04:37:35;16.20;99.90
19892;DHT22;10108;50.142;8.724;2023-08-30T04:40:01;16.20;99.90
19892;DHT22;10108;50.142;8.724;2023-08-30T04:42:29;16.30;99.90
19892;DHT22;10108;50.142;8.724;2023-08-30T04:44:55;16.30;99.90
19892;DHT22;10108;50.142;8.724;2023-08-30T04:47:22;16.30;99.90
19892;DHT22;10108;50.142;8.724;2023-08-30T04:49:52;16.20;99.90
19892;DHT22;10108;50.142;8.724;2023-08-30T04:52:18;16.20;99.90
19892;DHT22;10108;50.142;8.724;2023-08-30T04:54:44;16.20;99.90
19892;DHT22;10108;50.142;8.724;2023-08-30T04:57:12;16.20;99.90
19892;DHT22;10108;50.142;8.724;2023-08-30T04:59:43;16.20;99.90
19892;DHT22;10108;50.142;8.724;2023-08-30T05:02:10;16.20;99.90
19892;DHT22;10108;50.142;8.724;2023-08-30T05:04:43;16.20;99.90
19892;DHT22;10108;50.142;8.724;2023-08-30T05:07:09;16.10;99.90
19892;DHT22;10108;50.142;8.724;2023-08-30T05:09:35;16.10;99.90
19892;DHT22;10108;50.142;8.724;2023-08-30T05:12:01;16.10;99.90
19892;DHT22;10108;50.142;8.724;2023-08-30T05:14:29;16.10;99.90
19892;DHT22;10108;50.142;8.724;2023-08-30T05:16:56;16.10;99.90
19892;DHT22;10108;50.142;8.724;2023-08-30T05:19:22;16.10;99.90
19892;DHT22;10108;50.142;8.724;2023-08-30T05:21:49;16.20;99.90
19892;DHT22;10108;50.142;8.724;2023-08-30T05:24:21;16.20;99.90
19892;DHT22;10108;50.142;8.724;2023-08-30T05:26:47;16.20;99.90
19892;DHT22;10108;50.142;8.724;2023-08-30T05:29:15;16.30;99.90
19892;DHT22;10108;50.142;8.724;2023-08-30T05:31:42;16.30;99.90
19892;DHT22;10108;50.142;8.724;2023-08-30T05:34:26;16.30;99.90
19892;DHT22;10108;50.142;8.724;2023-08-30T05:37:23;16.30;99.90
19892;DHT22;10108;50.142;8.724;2023-08-30T05:40:03;16.40;99.90
19892;DHT22;10108;50.142;8.724;2023-08-30T05:42:29;16.40;99.90
19892;DHT22;10108;50.142;8.724;2023-08-30T05:44:56;16.40;99.90
19892;DHT22;10108;50.142;8.724;2023-08-30T05:47:22;16.40;99.90
19892;DHT22;10108;50.142;8.724;2023-08-30T05:49:48;16.40;99.90
19892;DHT22;10108;50.142;8.724;2023-08-30T05:52:15;16.40;99.90
19892;DHT22;10108;50.142;8.724;2023-08-30T05:54:42;16.40;99.90
19892;DHT22;10108;50.142;8.724;2023-08-30T05:57:09;16.50;99.90
19892;DHT22;10108;50.142;8.724;2023-08-30T05:59:36;16.50;99.90
19892;DHT22;10108;50.142;8.724;2023-08-30T06:02:02;16.50;99.90
19892;DHT22;10108;50.142;8.724;2023-08-30T06:04:30;16.60;99.90
19892;DHT22;10108;50.142;8.724;2023-08-30T06:06:56;16.60;99.90
19892;DHT22;10108;50.142;8.724;2023-08-30T06:09:22;16.60;99.90
19892;DHT22;10108;50.142;8.724;2023-08-30T06:11:48;16.60;99.90
19892;DHT22;10108;50.142;8.724;2023-08-30T06:14:14;16.60;99.90
19892;DHT22;10108;50.142;8.724;2023-08-30T06:16:40;16.60;99.90
19892;DHT22;10108;50.142;8.724;2023-08-30T06:19:13;16.70;99.90
19892;DHT22;10108;50.142;8.724;2023-08-30T06:21:39;16.60;99.90
19892;DHT22;10108;50.142;8.724;2023-08-30T06:24:05;16.70;99.90
19892;DHT22;10108;50.142;8.724;2023-08-30T06:26:31;16.70;99.90
19892;DHT22;10108;50.142;8.724;2023-08-30T06:28:58;16.60;99.90
19892;DHT22;10108;50.142;8.724;2023-08-30T06:31:24;16.70;99.90
19892;DHT22;10108;50.142;8.724;2023-08-30T06:33:50;16.70;99.90
19892;DHT22;10108;50.142;8.724;2023-08-30T06:36:16;16.70;99.90
19892;DHT22;10108;50.142;8.724;2023-08-30T06:38:43;16.70;99.90
19892;DHT22;10108;50.142;8.724;2023-08-30T06:41:09;16.80;99.90
19892;DHT22;10108;50.142;8.724;2023-08-30T06:43:37;16.80;99.90
19892;DHT22;10108;50.142;8.724;2023-08-30T06:46:03;16.80;99.90
19892;DHT22;10108;50.142;8.724;2023-08-30T06:48:29;16.80;99.90
19892;DHT22;10108;50.142;8.724;2023-08-30T06:50:58;16.80;99.90
19892;DHT22;10108;50.142;8.724;2023-08-30T06:53:27;16.80;99.90
19892;DHT22;10108;50.142;8.724;2023-08-30T06:55:58;16.80;99.90
19892;DHT22;10108;50.142;8.724;2023-08-30T06:58:24;16.90;99.90
19892;DHT22;10108;50.142;8.724;2023-08-30T07:00:51;16.90;99.90
19892;DHT22;10108;50.142;8.724;2023-08-30T07:03:17;16.90;99.90
19892;DHT22;10108;50.142;8.724;2023-08-30T07:05:43;17.00;99.90
19892;DHT22;10108;50.142;8.724;2023-08-30T07:08:09;17.00;99.90
19892;DHT22;10108;50.142;8.724;2023-08-30T07:10:36;17.00;99.90
19892;DHT22;10108;50.142;8.724;2023-08-30T07:13:02;17.10;99.90
19892;DHT22;10108;50.142;8.724;2023-08-30T07:15:28;17.10;99.90
19892;DHT22;10108;50.142;8.724;2023-08-30T07:17:54;17.10;99.90
19892;DHT22;10108;50.142;8.724;2023-08-30T07:20:20;17.10;99.90
19892;DHT22;10108;50.142;8.724;2023-08-30T07:22:46;17.10;99.90
19892;DHT22;10108;50.142;8.724;2023-08-30T07:25:12;17.10;99.90
19892;DHT22;10108;50.142;8.724;2023-08-30T07:27:39;17.20;99.90
19892;DHT22;10108;50.142;8.724;2023-08-30T07:30:06;17.20;99.90
19892;DHT22;10108;50.142;8.724;2023-08-30T07:32:32;17.30;99.90
19892;DHT22;10108;50.142;8.724;2023-08-30T07:34:58;17.30;99.90
19892;DHT22;10108;50.142;8.724;2023-08-30T07:37:25;17.30;99.90
19892;DHT22;10108;50.142;8.724;2023-08-30T07:39:51;17.40;99.90
19892;DHT22;10108;50.142;8.724;2023-08-30T07:42:18;17.40;99.90
19892;DHT22;10108;50.142;8.724;2023-08-30T07:44:44;17.40;99.90
19892;DHT22;10108;50.142;8.724;2023-08-30T07:47:10;17.40;99.90
19892;DHT22;10108;50.142;8.724;2023-08-30T07:49:36;17.50;99.90
19892;DHT22;10108;50.142;8.724;2023-08-30T07:52:02;17.50;99.90
19892;DHT22;10108;50.142;8.724;2023-08-30T07:54:30;17.60;99.90
19892;DHT22;10108;50.142;8.724;2023-08-30T07:56:56;17.60;99.90
19892;DHT22;10108;50.142;8.724;2023-08-30T07:59:22;17.60;99.90
19892;DHT22;10108;50.142;8.724;2023-08-30T08:01:49;17.70;99.90
19892;DHT22;10108;50.142;8.724;2023-08-30T08:04:15;17.70;99.90
19892;DHT22;10108;50.142;8.724;2023-08-30T08:06:41;17.80;99.90
19892;DHT22;10108;50.142;8.724;2023-08-30T08:09:07;17.80;99.90
19892;DHT22;10108;50.142;8.724;2023-08-30T08:11:34;17.90;99.90
19892;DHT22;10108;50.142;8.724;2023-08-30T08:14:00;17.90;99.90
19892;DHT22;10108;50.142;8.724;2023-08-30T08:16:26;18.00;99.90
19892;DHT22;10108;50.142;8.724;2023-08-30T08:18:52;18.00;99.90
19892;DHT22;10108;50.142;8.724;2023-08-30T08:21:19;18.00;99.90
19892;DHT22;10108;50.142;8.724;2023-08-30T08:23:45;18.00;99.90
19892;DHT22;10108;50.142;8.724;2023-08-30T08:26:15;18.00;99.90
19892;DHT22;10108;50.142;8.724;2023-08-30T08:28:41;18.00;99.90
19892;DHT22;10108;50.142;8.724;2023-08-30T08:31:07;18.00;99.90
19892;DHT22;10108;50.142;8.724;2023-08-30T08:33:34;18.00;99.90
19892;DHT22;10108;50.142;8.724;2023-08-30T08:36:00;18.00;99.90
19892;DHT22;10108;50.142;8.724;2023-08-30T08:38:26;18.00;99.90
19892;DHT22;10108;50.142;8.724;2023-08-30T08:41:04;18.00;99.90
19892;DHT22;10108;50.142;8.724;2023-08-30T08:43:32;18.00;99.90
19892;DHT22;10108;50.142;8.724;2023-08-30T08:46:02;18.10;99.90
19892;DHT22;10108;50.142;8.724;2023-08-30T08:48:31;18.10;99.90
19892;DHT22;10108;50.142;8.724;2023-08-30T08:51:00;18.10;99.90
19892;DHT22;10108;50.142;8.724;2023-08-30T08:53:26;18.10;99.90
19892;DHT22;10108;50.142;8.724;2023-08-30T08:55:53;18.10;99.90
19892;DHT22;10108;50.142;8.724;2023-08-30T08:58:20;18.20;99.90
19892;DHT22;10108;50.142;8.724;2023-08-30T09:00:46;18.20;99.90
19892;DHT22;10108;50.142;8.724;2023-08-30T09:03:13;18.20;99.90
19892;DHT22;10108;50.142;8.724;2023-08-30T09:05:39;18.30;99.90
19892;DHT22;10108;50.142;8.724;2023-08-30T09:08:06;18.30;99.90
19892;DHT22;10108;50.142;8.724;2023-08-30T09:10:33;18.30;99.90
19892;DHT22;10108;50.142;8.724;2023-08-30T09:12:59;18.40;99.90
19892;DHT22;10108;50.142;8.724;2023-08-30T09:15:32;18.40;99.90
19892;DHT22;10108;50.142;8.724;2023-08-30T09:17:58;18.40;99.90
19892;DHT22;10108;50.142;8.724;2023-08-30T09:20:25;18.40;99.90
19892;DHT22;10108;50.142;8.724;2023-08-30T09:22:51;18.40;99.90
19892;DHT22;10108;50.142;8.724;2023-08-30T09:25:27;18.40;99.90
19892;DHT22;10108;50.142;8.724;2023-08-30T09:27:59;18.40;99.90
19892;DHT22;10108;50.142;8.724;2023-08-30T09:30:26;18.40;99.90
19892;DHT22;10108;50.142;8.724;2023-08-30T09:32:52;18.40;99.90
19892;DHT22;10108;50.142;8.724;2023-08-30T09:35:18;18.40;99.90
19892;DHT22;10108;50.142;8.724;2023-08-30T09:37:45;18.40;99.90
19892;DHT22;10108;50.142;8.724;2023-08-30T09:40:11;18.40;99.90
19892;DHT22;10108;50.142;8.724;2023-08-30T09:42:41;18.40;99.90
19892;DHT22;10108;50.142;8.724;2023-08-30T09:45:22;18.40;99.90
19892;DHT22;10108;50.142;8.724;2023-08-30T09:47:49;18.40;99.90
19892;DHT22;10108;50.142;8.724;2023-08-30T09:50:18;18.40;99.90
19892;DHT22;10108;50.142;8.724;2023-08-30T09:52:46;18.50;99.90
19892;DHT22;10108;50.142;8.724;2023-08-30T09:55:14;18.50;99.90
19892;DHT22;10108;50.142;8.724;2023-08-30T09:57:42;18.50;99.90
19892;DHT22;10108;50.142;8.724;2023-08-30T10:00:10;18.50;99.90
19892;DHT22;10108;50.142;8.724;2023-08-30T10:02:41;18.60;99.90
19892;DHT22;10108;50.142;8.724;2023-08-30T10:05:08;18.60;99.90
19892;DHT22;10108;50.142;8.724;2023-08-30T10:07:39;18.60;99.90
19892;DHT22;10108;50.142;8.724;2023-08-30T10:10:05;18.70;99.90
19892;DHT22;10108;50.142;8.724;2023-08-30T10:12:32;18.70;99.90
19892;DHT22;10108;50.142;8.724;2023-08-30T10:14:59;18.70;99.90
19892;DHT22;10108;50.142;8.724;2023-08-30T10:17:31;18.70;99.90
19892;DHT22;10108;50.142;8.724;2023-08-30T10:19:59;18.70;99.90
19892;DHT22;10108;50.142;8.724;2023-08-30T10:22:26;18.80;99.90
19892;DHT22;10108;50.142;8.724;2023-08-30T10:24:56;18.80;99.90
19892;DHT22;10108;50.142;8.724;2023-08-30T10:27:24;18.90;99.90
19892;DHT22;10108;50.142;8.724;2023-08-30T10:29:52;18.90;99.90
19892;DHT22;10108;50.142;8.724;2023-08-30T10:32:20;19.00;99.90
19892;DHT22;10108;50.142;8.724;2023-08-30T10:34:49;19.00;99.90
19892;DHT22;10108;50.142;8.724;2023-08-30T10:37:16;19.10;99.90
19892;DHT22;10108;50.142;8.724;2023-08-30T10:39:43;19.10;99.90
19892;DHT22;10108;50.142;8.724;2023-08-30T10:42:13;19.10;99.90
19892;DHT22;10108;50.142;8.724;2023-08-30T10:47:28;19.10;99.90
19892;DHT22;10108;50.142;8.724;2023-08-30T10:49:56;19.10;99.90
19892;DHT22;10108;50.142;8.724;2023-08-30T10:52:23;19.10;99.90
19892;DHT22;10108;50.142;8.724;2023-08-30T10:54:49;19.10;99.90
19892;DHT22;10108;50.142;8.724;2023-08-30T10:57:19;19.20;99.90
19892;DHT22;10108;50.142;8.724;2023-08-30T11:02:34;19.20;99.90
19892;DHT22;10108;50.142;8.724;2023-08-30T11:05:01;19.20;99.90
19892;DHT22;10108;50.142;8.724;2023-08-30T11:07:28;19.30;99.90
19892;DHT22;10108;50.142;8.724;2023-08-30T11:09:54;19.30;99.90
19892;DHT22;10108;50.142;8.724;2023-08-30T11:12:21;19.40;99.90
19892;DHT22;10108;50.142;8.724;2023-08-30T11:14:54;19.40;99.90
19892;DHT22;10108;50.142;8.724;2023-08-30T11:17:20;19.40;99.90
19892;DHT22;10108;50.142;8.724;2023-08-30T11:19:50;19.50;99.90
19892;DHT22;10108;50.142;8.724;2023-08-30T11:22:17;19.50;99.90
19892;DHT22;10108;50.142;8.724;2023-08-30T11:24:45;19.60;99.90
19892;DHT22;10108;50.142;8.724;2023-08-30T11:27:11;19.70;99.90
19892;DHT22;10108;50.142;8.724;2023-08-30T11:29:39;19.70;99.90
19892;DHT22;10108;50.142;8.724;2023-08-30T11:32:07;19.70;99.90
19892;DHT22;10108;50.142;8.724;2023-08-30T11:34:33;19.70;99.90
19892;DHT22;10108;50.142;8.724;2023-08-30T11:36:59;19.70;99.90
19892;DHT22;10108;50.142;8.724;2023-08-30T11:39:28;19.60;99.90
19892;DHT22;10108;50.142;8.724;2023-08-30T11:41:54;19.60;99.90
19892;DHT22;10108;50.142;8.724;2023-08-30T11:44:23;19.60;99.90
19892;DHT22;10108;50.142;8.724;2023-08-30T11:47:00;19.60;99.90
19892;DHT22;10108;50.142;8.724;2023-08-30T11:49:29;19.60;99.90
19892;DHT22;10108;50.142;8.724;2023-08-30T11:51:56;19.60;99.90
19892;DHT22;10108;50.142;8.724;2023-08-30T11:54:24;19.60;99.90
19892;DHT22;10108;50.142;8.724;2023-08-30T11:56:50;19.70;99.90
19892;DHT22;10108;50.142;8.724;2023-08-30T11:59:20;19.70;99.90
19892;DHT22;10108;50.142;8.724;2023-08-30T12:01:48;19.70;99.90
19892;DHT22;10108;50.142;8.724;2023-08-30T12:04:15;19.60;99.90
19892;DHT22;10108;50.142;8.724;2023-08-30T12:06:41;19.60;99.90
19892;DHT22;10108;50.142;8.724;2023-08-30T12:09:12;19.60;99.90
19892;DHT22;10108;50.142;8.724;2023-08-30T12:11:38;19.60;99.90
19892;DHT22;10108;50.142;8.724;2023-08-30T12:14:04;19.60;99.90
19892;DHT22;10108;50.142;8.724;2023-08-30T12:16:30;19.60;99.90
19892;DHT22;10108;50.142;8.724;2023-08-30T12:19:07;19.70;99.90
19892;DHT22;10108;50.142;8.724;2023-08-30T12:21:39;19.70;99.90
19892;DHT22;10108;50.142;8.724;2023-08-30T12:24:06;19.80;99.90
19892;DHT22;10108;50.142;8.724;2023-08-30T12:26:33;19.80;99.90
19892;DHT22;10108;50.142;8.724;2023-08-30T12:28:59;19.90;99.90
19892;DHT22;10108;50.142;8.724;2023-08-30T12:31:25;19.90;99.90
19892;DHT22;10108;50.142;8.724;2023-08-30T12:33:54;19.90;99.90
19892;DHT22;10108;50.142;8.724;2023-08-30T12:36:20;19.90;99.90
19892;DHT22;10108;50.142;8.724;2023-08-30T12:38:46;19.90;99.90
19892;DHT22;10108;50.142;8.724;2023-08-30T12:41:12;19.90;99.90
19892;DHT22;10108;50.142;8.724;2023-08-30T12:43:38;19.90;99.90
19892;DHT22;10108;50.142;8.724;2023-08-30T12:46:05;19.90;99.90
19892;DHT22;10108;50.142;8.724;2023-08-30T12:48:31;19.80;99.90
19892;DHT22;10108;50.142;8.724;2023-08-30T12:50:57;19.80;99.90
19892;DHT22;10108;50.142;8.724;2023-08-30T12:53:23;19.90;99.90
19892;DHT22;10108;50.142;8.724;2023-08-30T12:55:49;19.90;99.90
19892;DHT22;10108;50.142;8.724;2023-08-30T12:58:15;19.90;99.90
19892;DHT22;10108;50.142;8.724;2023-08-30T13:00:41;19.90;99.90
19892;DHT22;10108;50.142;8.724;2023-08-30T13:03:07;19.90;99.90
19892;DHT22;10108;50.142;8.724;2023-08-30T13:05:34;19.90;99.90
19892;DHT22;10108;50.142;8.724;2023-08-30T13:08:00;20.00;99.90
19892;DHT22;10108;50.142;8.724;2023-08-30T13:10:26;19.90;99.90
19892;DHT22;10108;50.142;8.724;2023-08-30T13:12:52;19.90;99.90
19892;DHT22;10108;50.142;8.724;2023-08-30T13:15:18;20.00;99.90
19892;DHT22;10108;50.142;8.724;2023-08-30T13:17:44;20.00;99.90
19892;DHT22;10108;50.142;8.724;2023-08-30T13:20:11;20.00;99.90
19892;DHT22;10108;50.142;8.724;2023-08-30T13:22:37;20.10;99.90
19892;DHT22;10108;50.142;8.724;2023-08-30T13:25:03;20.10;99.90
19892;DHT22;10108;50.142;8.724;2023-08-30T13:27:30;20.10;99.90
19892;DHT22;10108;50.142;8.724;2023-08-30T13:29:56;20.10;99.90
19892;DHT22;10108;50.142;8.724;2023-08-30T13:32:22;20.10;99.90
19892;DHT22;10108;50.142;8.724;2023-08-30T13:34:49;20.10;99.90
19892;DHT22;10108;50.142;8.724;2023-08-30T13:37:15;20.20;99.90
19892;DHT22;10108;50.142;8.724;2023-08-30T13:39:41;20.20;99.90
19892;DHT22;10108;50.142;8.724;2023-08-30T13:42:08;20.20;99.90
19892;DHT22;10108;50.142;8.724;2023-08-30T13:44:34;20.20;99.90
19892;DHT22;10108;50.142;8.724;2023-08-30T13:47:04;20.20;99.90
19892;DHT22;10108;50.142;8.724;2023-08-30T13:49:30;20.10;99.90
19892;DHT22;10108;50.142;8.724;2023-08-30T13:51:57;20.20;99.90
19892;DHT22;10108;50.142;8.724;2023-08-30T13:54:24;20.20;99.90
19892;DHT22;10108;50.142;8.724;2023-08-30T13:56:50;20.20;99.90
19892;DHT22;10108;50.142;8.724;2023-08-30T13:59:17;20.20;99.90
19892;DHT22;10108;50.142;8.724;2023-08-30T14:01:43;20.20;99.90
19892;DHT22;10108;50.142;8.724;2023-08-30T14:04:09;20.20;99.90
19892;DHT22;10108;50.142;8.724;2023-08-30T14:06:35;20.20;99.90
19892;DHT22;10108;50.142;8.724;2023-08-30T14:09:01;20.10;99.90
19892;DHT22;10108;50.142;8.724;2023-08-30T14:11:27;20.10;99.90
19892;DHT22;10108;50.142;8.724;2023-08-30T14:13:53;20.10;99.90
19892;DHT22;10108;50.142;8.724;2023-08-30T14:16:20;20.20;99.90
19892;DHT22;10108;50.142;8.724;2023-08-30T14:18:46;20.20;99.90
19892;DHT22;10108;50.142;8.724;2023-08-30T14:21:12;20.20;99.90
19892;DHT22;10108;50.142;8.724;2023-08-30T14:23:39;20.30;99.90
19892;DHT22;10108;50.142;8.724;2023-08-30T14:26:06;20.20;99.90
19892;DHT22;10108;50.142;8.724;2023-08-30T14:28:39;20.30;99.90
19892;DHT22;10108;50.142;8.724;2023-08-30T14:31:09;20.30;99.90
19892;DHT22;10108;50.142;8.724;2023-08-30T14:33:36;20.30;99.90
19892;DHT22;10108;50.142;8.724;2023-08-30T14:36:08;20.30;99.90
19892;DHT22;10108;50.142;8.724;2023-08-30T14:38:34;20.30;99.90
19892;DHT22;10108;50.142;8.724;2023-08-30T14:41:02;20.40;99.90
19892;DHT22;10108;50.142;8.724;2023-08-30T14:43:28;20.40;99.90
19892;DHT22;10108;50.142;8.724;2023-08-30T14:46:05;20.40;99.90
19892;DHT22;10108;50.142;8.724;2023-08-30T14:48:34;20.50;99.90
19892;DHT22;10108;50.142;8.724;2023-08-30T14:51:01;20.50;99.90
19892;DHT22;10108;50.142;8.724;2023-08-30T14:53:27;20.50;99.90
19892;DHT22;10108;50.142;8.724;2023-08-30T14:55:53;20.50;99.90
19892;DHT22;10108;50.142;8.724;2023-08-30T14:58:21;20.50;99.90
19892;DHT22;10108;50.142;8.724;2023-08-30T15:00:48;20.50;99.90
19892;DHT22;10108;50.142;8.724;2023-08-30T15:03:15;20.50;99.90
19892;DHT22;10108;50.142;8.724;2023-08-30T15:05:42;20.50;99.90
19892;DHT22;10108;50.142;8.724;2023-08-30T15:08:08;20.50;99.90
19892;DHT22;10108;50.142;8.724;2023-08-30T15:10:34;20.40;99.90
19892;DHT22;10108;50.142;8.724;2023-08-30T15:13:03;20.40;99.90
19892;DHT22;10108;50.142;8.724;2023-08-30T15:15:30;20.40;99.90
19892;DHT22;10108;50.142;8.724;2023-08-30T15:17:56;20.40;99.90
19892;DHT22;10108;50.142;8.724;2023-08-30T15:20:22;20.40;99.90
19892;DHT22;10108;50.142;8.724;2023-08-30T15:22:51;20.40;99.90
19892;DHT22;10108;50.142;8.724;2023-08-30T15:25:17;20.40;99.90
19892;DHT22;10108;50.142;8.724;2023-08-30T15:27:43;20.40;99.90
19892;DHT22;10108;50.142;8.724;2023-08-30T15:30:09;20.30;99.90
19892;DHT22;10108;50.142;8.724;2023-08-30T15:32:36;20.30;99.90
19892;DHT22;10108;50.142;8.724;2023-08-30T15:35:02;20.20;99.90
19892;DHT22;10108;50.142;8.724;2023-08-30T15:37:28;20.20;99.90